Terminal Aerodrome Forecast
Issued by NWS

Home | Current Version | Previous Version | Text Only | Print | Product List | Glossary On
Versions: 1 2 3 4 5 6 7 8 9 10 11 12 13 14 15 16
000
FTUS42 KGSP 220500
TAFAND
TAF
KAND 220539Z 2206/2306 00000KT P6SM SCT150
     FM222100 27006KT P6SM FEW070 SCT150
     FM230300 32005KT P6SM SCT060 BKN120=

USA.gov is the U.S. government's official web portal to all federal, state and local government web resources and services.